Time,TemperatureF,DewpointF,PressureIn,WindDirection,WindDirectionDegrees,WindSpeedMPH,WindSpeedGustMPH,Humidity,HourlyPrecipIn,Conditions,Clouds,dailyrainin,SolarRadiationWatts/m^2,SoftwareType,DateUTC
2013-03-24 00:07:00,32.5,21.0,29.86,NNW,333,1.0,3.0,62,0.00,,,0.00,0,weatherlink.com 1.10,2013-03-24 04:07:00,
2013-03-24 00:21:00,32.5,21.0,29.87,South,173,0.0,6.0,62,0.00,,,0.00,0,weatherlink.com 1.10,2013-03-24 04:21:00,
2013-03-24 00:36:00,32.4,21.0,29.87,North,11,1.0,2.0,63,0.00,,,0.00,0,weatherlink.com 1.10,2013-03-24 04:36:00,
2013-03-24 00:52:00,32.4,21.0,29.86,North,355,1.0,4.0,64,0.00,,,0.00,0,weatherlink.com 1.10,2013-03-24 04:52:00,
2013-03-24 01:07:00,32.5,21.0,29.86,NNW,348,0.0,2.0,64,0.00,,,0.00,0,weatherlink.com 1.10,2013-03-24 05:07:00,
2013-03-24 01:37:00,32.2,22.0,29.86,NNW,348,0.0,1.0,65,0.00,,,0.00,0,weatherlink.com 1.10,2013-03-24 05:37:00,
2013-03-24 01:52:00,32.2,22.0,29.86,NNW,348,0.0,1.0,65,0.00,,,0.00,0,weatherlink.com 1.10,2013-03-24 05:52:00,
2013-03-24 02:08:00,32.4,21.0,29.86,NNW,348,0.0,2.0,64,0.00,,,0.00,0,weatherlink.com 1.10,2013-03-24 06:08:00,
2013-03-24 02:22:00,32.5,21.0,29.86,NNW,348,0.0,2.0,64,0.00,,,0.00,0,weatherlink.com 1.10,2013-03-24 06:22:00,
2013-03-24 02:37:00,32.7,22.0,29.86,NW,317,0.0,3.0,64,0.00,,,0.00,0,weatherlink.com 1.10,2013-03-24 06:37:00,
2013-03-24 02:52:00,32.7,22.0,29.85,NW,306,0.0,3.0,64,0.00,,,0.00,0,weatherlink.com 1.10,2013-03-24 06:52:00,
2013-03-24 03:07:00,32.4,21.0,29.84,WNW,297,0.0,2.0,64,0.00,,,0.00,0,weatherlink.com 1.10,2013-03-24 07:07:00,
2013-03-24 03:22:00,32.4,21.0,29.83,WNW,302,1.0,2.0,64,0.00,,,0.00,0,weatherlink.com 1.10,2013-03-24 07:22:00,
2013-03-24 03:37:00,32.4,21.0,29.83,NW,314,0.0,6.0,64,0.00,,,0.00,0,weatherlink.com 1.10,2013-03-24 07:37:00,
2013-03-24 03:52:00,32.4,21.0,29.84,SSW,199,1.0,4.0,64,0.00,,,0.00,0,weatherlink.com 1.10,2013-03-24 07:52:00,
2013-03-24 04:07:00,32.0,21.0,29.83,NW,315,2.0,3.0,64,0.00,,,0.00,0,weatherlink.com 1.10,2013-03-24 08:07:00,
2013-03-24 04:22:00,31.8,21.0,29.82,West,261,0.0,3.0,64,0.00,,,0.00,0,weatherlink.com 1.10,2013-03-24 08:22:00,
2013-03-24 04:37:00,31.8,21.0,29.82,ESE,102,0.0,2.0,64,0.00,,,0.00,0,weatherlink.com 1.10,2013-03-24 08:37:00,
2013-03-24 04:52:00,31.5,21.0,29.83,ESE,102,0.0,1.0,65,0.00,,,0.00,0,weatherlink.com 1.10,2013-03-24 08:52:00,
2013-03-24 05:07:00,31.4,21.0,29.84,SSE,153,0.0,3.0,65,0.00,,,0.00,0,weatherlink.com 1.10,2013-03-24 09:07:00,
2013-03-24 05:22:00,30.9,20.0,29.86,SSE,153,0.0,3.0,65,0.00,,,0.00,0,weatherlink.com 1.10,2013-03-24 09:22:00,
2013-03-24 05:37:00,30.1,21.0,29.86,SSE,153,0.0,0.0,68,0.00,,,0.00,0,weatherlink.com 1.10,2013-03-24 09:37:00,
2013-03-24 05:52:00,29.4,20.0,29.86,SSE,153,0.0,1.0,69,0.00,,,0.00,0,weatherlink.com 1.10,2013-03-24 09:52:00,
2013-03-24 06:07:00,28.9,20.0,29.86,SSE,153,0.0,1.0,70,0.00,,,0.00,0,weatherlink.com 1.10,2013-03-24 10:07:00,
2013-03-24 06:22:00,29.6,21.0,29.86,SSE,153,1.0,2.0,70,0.00,,,0.00,0,weatherlink.com 1.10,2013-03-24 10:22:00,
2013-03-24 06:37:00,30.1,21.0,29.87,WSW,257,0.0,2.0,69,0.00,,,0.00,0,weatherlink.com 1.10,2013-03-24 10:37:00,
2013-03-24 06:52:00,30.7,21.0,29.87,South,173,0.0,3.0,68,0.00,,,0.00,0,weatherlink.com 1.10,2013-03-24 10:52:00,
2013-03-24 07:07:00,31.4,22.0,29.86,North,355,1.0,3.0,67,0.00,,,0.00,9,weatherlink.com 1.10,2013-03-24 11:07:00,
2013-03-24 07:22:00,31.7,22.0,29.86,North,355,0.0,1.0,67,0.00,,,0.00,16,weatherlink.com 1.10,2013-03-24 11:22:00,
2013-03-24 07:37:00,32.1,22.0,29.86,North,355,1.0,2.0,66,0.00,,,0.00,26,weatherlink.com 1.10,2013-03-24 11:37:00,
2013-03-24 07:52:00,32.5,22.0,29.87,North,355,0.0,2.0,65,0.00,,,0.00,37,weatherlink.com 1.10,2013-03-24 11:52:00,
2013-03-24 08:07:00,32.9,22.0,29.88,North,350,0.0,2.0,64,0.00,,,0.00,42,weatherlink.com 1.10,2013-03-24 12:07:00,
2013-03-24 08:22:00,33.4,22.0,29.88,West,275,1.0,5.0,62,0.00,,,0.00,60,weatherlink.com 1.10,2013-03-24 12:22:00,
2013-03-24 08:37:00,34.0,22.0,29.88,NNW,344,0.0,4.0,61,0.00,,,0.00,62,weatherlink.com 1.10,2013-03-24 12:37:00,
2013-03-24 08:52:00,34.5,21.0,29.89,SW,229,0.0,5.0,59,0.00,,,0.00,69,weatherlink.com 1.10,2013-03-24 12:52:00,
2013-03-24 09:07:00,34.8,21.0,29.89,WNW,300,2.0,6.0,58,0.00,,,0.00,76,weatherlink.com 1.10,2013-03-24 13:07:00,
2013-03-24 09:22:00,35.0,21.0,29.89,NNW,346,1.0,5.0,57,0.00,,,0.00,86,weatherlink.com 1.10,2013-03-24 13:22:00,
2013-03-24 09:40:00,35.1,21.0,29.89,SW,216,2.0,7.0,57,0.00,,,0.00,98,weatherlink.com 1.10,2013-03-24 13:40:00,
2013-03-24 09:53:00,35.4,21.0,29.89,WSW,248,0.0,5.0,57,0.00,,,0.00,123,weatherlink.com 1.10,2013-03-24 13:53:00,
2013-03-24 10:08:00,35.8,22.0,29.88,NNW,340,0.0,5.0,57,0.00,,,0.00,141,weatherlink.com 1.10,2013-03-24 14:08:00,
2013-03-24 10:23:00,36.2,22.0,29.88,NW,318,2.0,4.0,56,0.00,,,0.00,141,weatherlink.com 1.10,2013-03-24 14:23:00,
2013-03-24 10:38:00,36.5,22.0,29.88,NW,319,1.0,7.0,56,0.00,,,0.00,153,weatherlink.com 1.10,2013-03-24 14:38:00,
2013-03-24 10:53:00,36.7,22.0,29.88,WNW,296,2.0,4.0,55,0.00,,,0.00,178,weatherlink.com 1.10,2013-03-24 14:53:00,
2013-03-24 11:08:00,36.8,21.0,29.88,North,355,0.0,5.0,54,0.00,,,0.00,218,weatherlink.com 1.10,2013-03-24 15:08:00,
2013-03-24 11:23:00,37.1,22.0,29.88,SSE,165,1.0,5.0,54,0.00,,,0.00,199,weatherlink.com 1.10,2013-03-24 15:23:00,
2013-03-24 11:38:00,37.6,22.0,29.88,WNW,284,3.0,5.0,53,0.00,,,0.00,227,weatherlink.com 1.10,2013-03-24 15:38:00,
2013-03-24 11:53:00,37.8,22.0,29.87,WSW,246,1.0,5.0,53,0.00,,,0.00,243,weatherlink.com 1.10,2013-03-24 15:53:00,
2013-03-24 12:08:00,38.7,22.0,29.86,SSW,198,1.0,6.0,52,0.00,,,0.00,343,weatherlink.com 1.10,2013-03-24 16:08:00,
2013-03-24 12:23:00,39.4,22.0,29.85,SW,222,1.0,4.0,51,0.00,,,0.00,348,weatherlink.com 1.10,2013-03-24 16:23:00,
2013-03-24 12:38:00,39.9,22.0,29.84,NNW,347,2.0,4.0,49,0.00,,,0.00,396,weatherlink.com 1.10,2013-03-24 16:38:00,
2013-03-24 12:53:00,40.5,23.0,29.84,SSW,201,1.0,5.0,49,0.00,,,0.00,367,weatherlink.com 1.10,2013-03-24 16:53:00,
2013-03-24 13:08:00,41.8,23.0,29.82,SSW,211,0.0,4.0,47,0.00,,,0.00,383,weatherlink.com 1.10,2013-03-24 17:08:00,
2013-03-24 13:23:00,41.9,23.0,29.82,NW,304,1.0,6.0,47,0.00,,,0.00,1039,weatherlink.com 1.10,2013-03-24 17:23:00,
2013-03-24 13:38:00,42.3,22.0,29.81,WSW,241,3.0,4.0,45,0.00,,,0.00,879,weatherlink.com 1.10,2013-03-24 17:38:00,
2013-03-24 13:53:00,44.3,24.0,29.81,WNW,298,1.0,4.0,45,0.00,,,0.00,879,weatherlink.com 1.10,2013-03-24 17:53:00,
2013-03-24 14:08:00,44.0,24.0,29.80,SW,227,1.0,7.0,45,0.00,,,0.00,812,weatherlink.com 1.10,2013-03-24 18:08:00,
2013-03-24 14:23:00,44.3,23.0,29.79,SW,214,1.0,5.0,44,0.00,,,0.00,886,weatherlink.com 1.10,2013-03-24 18:23:00,
2013-03-24 14:39:00,44.8,23.0,29.78,WNW,294,1.0,5.0,43,0.00,,,0.00,833,weatherlink.com 1.10,2013-03-24 18:39:00,
2013-03-24 14:53:00,44.5,23.0,29.77,ENE,78,2.0,6.0,42,0.00,,,0.00,784,weatherlink.com 1.10,2013-03-24 18:53:00,
2013-03-24 15:08:00,44.8,23.0,29.76,SW,235,3.0,6.0,42,0.00,,,0.00,738,weatherlink.com 1.10,2013-03-24 19:08:00,
2013-03-24 15:23:00,44.6,23.0,29.75,SSW,202,1.0,6.0,43,0.00,,,0.00,731,weatherlink.com 1.10,2013-03-24 19:23:00,
2013-03-24 15:38:00,44.9,23.0,29.75,South,184,1.0,7.0,43,0.00,,,0.00,657,weatherlink.com 1.10,2013-03-24 19:38:00,
2013-03-24 15:53:00,46.1,25.0,29.74,NW,317,0.0,3.0,43,0.00,,,0.00,605,weatherlink.com 1.10,2013-03-24 19:53:00,
2013-03-24 16:08:00,45.5,23.0,29.73,South,183,2.0,6.0,42,0.00,,,0.00,483,weatherlink.com 1.10,2013-03-24 20:08:00,
2013-03-24 16:24:00,44.7,23.0,29.73,South,182,0.0,4.0,43,0.00,,,0.00,380,weatherlink.com 1.10,2013-03-24 20:24:00,
2013-03-24 16:39:00,44.8,24.0,29.72,WNW,292,1.0,4.0,44,0.00,,,0.00,292,weatherlink.com 1.10,2013-03-24 20:39:00,
2013-03-24 16:54:00,44.1,23.0,29.71,NW,309,0.0,4.0,44,0.00,,,0.00,264,weatherlink.com 1.10,2013-03-24 20:54:00,
2013-03-24 17:09:00,43.7,23.0,29.72,SW,215,1.0,5.0,45,0.00,,,0.00,197,weatherlink.com 1.10,2013-03-24 21:09:00,
2013-03-24 17:24:00,43.3,23.0,29.73,SSW,213,0.0,2.0,45,0.00,,,0.00,211,weatherlink.com 1.10,2013-03-24 21:24:00,
2013-03-24 17:39:00,43.1,23.0,29.73,WNW,290,0.0,5.0,45,0.00,,,0.00,128,weatherlink.com 1.10,2013-03-24 21:39:00,
2013-03-24 17:54:00,42.7,24.0,29.73,SW,214,1.0,4.0,47,0.00,,,0.00,91,weatherlink.com 1.10,2013-03-24 21:54:00,
2013-03-24 18:09:00,42.5,23.0,29.73,SSE,159,0.0,2.0,47,0.00,,,0.00,77,weatherlink.com 1.10,2013-03-24 22:09:00,
2013-03-24 18:24:00,42.1,24.0,29.73,SSW,213,0.0,2.0,48,0.00,,,0.00,46,weatherlink.com 1.10,2013-03-24 22:24:00,
2013-03-24 18:39:00,41.7,23.0,29.72,SW,219,1.0,2.0,48,0.00,,,0.00,26,weatherlink.com 1.10,2013-03-24 22:39:00,
2013-03-24 18:54:00,41.1,23.0,29.72,SW,219,0.0,2.0,49,0.00,,,0.00,14,weatherlink.com 1.10,2013-03-24 22:54:00,
2013-03-24 19:09:00,40.5,23.0,29.73,SW,219,0.0,1.0,51,0.00,,,0.00,0,weatherlink.com 1.10,2013-03-24 23:09:00,
2013-03-24 19:24:00,40.0,23.0,29.73,SW,219,0.0,2.0,52,0.00,,,0.00,0,weatherlink.com 1.10,2013-03-24 23:24:00,
2013-03-24 19:39:00,39.5,23.0,29.73,SW,219,0.0,1.0,53,0.00,,,0.00,0,weatherlink.com 1.10,2013-03-24 23:39:00,
2013-03-24 19:54:00,39.0,23.0,29.72,SW,219,0.0,2.0,54,0.00,,,0.00,0,weatherlink.com 1.10,2013-03-24 23:54:00,
2013-03-24 20:09:00,38.6,23.0,29.73,SW,221,0.0,2.0,54,0.00,,,0.00,0,weatherlink.com 1.10,2013-03-25 00:09:00,
2013-03-24 20:24:00,38.3,23.0,29.73,SW,226,0.0,2.0,55,0.00,,,0.00,0,weatherlink.com 1.10,2013-03-25 00:24:00,
2013-03-24 20:54:00,37.9,23.0,29.75,SW,226,0.0,1.0,56,0.00,,,0.00,0,weatherlink.com 1.10,2013-03-25 00:54:00,
2013-03-24 21:09:00,37.5,23.0,29.76,SW,226,0.0,0.0,57,0.00,,,0.00,0,weatherlink.com 1.10,2013-03-25 01:09:00,
2013-03-24 21:24:00,37.3,23.0,29.75,SW,226,0.0,0.0,57,0.00,,,0.00,0,weatherlink.com 1.10,2013-03-25 01:24:00,
2013-03-24 21:39:00,36.9,24.0,29.76,SW,226,0.0,0.0,59,0.00,,,0.00,0,weatherlink.com 1.10,2013-03-25 01:39:00,
2013-03-24 21:54:00,36.3,23.0,29.76,SW,226,0.0,0.0,60,0.00,,,0.00,0,weatherlink.com 1.10,2013-03-25 01:54:00,
2013-03-24 22:09:00,35.9,23.0,29.76,SW,226,0.0,0.0,60,0.00,,,0.00,0,weatherlink.com 1.10,2013-03-25 02:09:00,
2013-03-24 22:24:00,35.3,24.0,29.75,SW,226,0.0,1.0,63,0.00,,,0.00,0,weatherlink.com 1.10,2013-03-25 02:24:00,
2013-03-24 23:09:00,33.8,24.0,29.74,SW,226,0.0,0.0,67,0.00,,,0.00,0,weatherlink.com 1.10,2013-03-25 03:09:00,
2013-03-24 23:24:00,33.5,24.0,29.74,SW,226,0.0,0.0,68,0.00,,,0.00,0,weatherlink.com 1.10,2013-03-25 03:24:00,
2013-03-24 23:39:00,32.8,24.0,29.74,SW,226,0.0,1.0,71,0.00,,,0.00,0,weatherlink.com 1.10,2013-03-25 03:39:00,
2013-03-24 23:54:00,32.8,24.0,29.74,SW,226,0.0,0.0,70,0.00,,,0.00,0,weatherlink.com 1.10,2013-03-25 03:54:00,